22:18
Airports
Links
Donate
Help keep this website running!
PayPal
Bitcoin
METAR
EGLL 172150Z AUTO 05003KT 9999 BKN049 11/08 Q1016 NOSIG
Current Weather Conditions at EGLL
VFR 21:50:00 17-10-17
Automated station, no observer
Altimeter:30.00 hg
Temp:11.0°c 52°f
Dew point:8.0°c 46°f
Wind:3 knots, 3.5 mph, 2 m/s, from 50°
Visibility:6.21 statute miles
4900(BKN) Broken
No significant weather changes expected within 2 hours.
Past METAR reports
VFR 21:20:00 17-10-17
Automated station, no observer
Altimeter:30.03 hg
Temp:12.0°c 54°f
Dew point:7.0°c 45°f
Wind:2 knots, 2.3 mph, 1 m/s, from 360°
Visibility:6.21 statute miles
4700(SCT) Scattered
No significant weather changes expected within 2 hours.
EGLL 172120Z AUTO 36002KT 9999 SCT047 12/07 Q1017 NOSIG
VFR 20:50:00 17-10-17
Automated station, no observer
Altimeter:30.03 hg
Temp:12.0°c 54°f
Dew point:8.0°c 46°f
Wind:2 knots, 2.3 mph, 1 m/s,
Variable direction
Visibility:6.21 statute miles
(CLR) Clear
EGLL 172050Z AUTO VRB02KT 9999 NCD 12/08 Q1017
VFR 20:20:00 17-10-17
Automated station, no observer
Altimeter:30.03 hg
Temp:12.0°c 54°f
Dew point:8.0°c 46°f
Wind:3 knots, 3.5 mph, 2 m/s,
Variable direction
Visibility:6.21 statute miles
(CLR) Clear
EGLL 172020Z AUTO VRB03KT 9999 NCD 12/08 Q1017
VFR 19:50:00 17-10-17
Automated station, no observer
Altimeter:30.03 hg
Temp:12.0°c 54°f
Dew point:8.0°c 46°f
Wind:4 knots, 4.6 mph, 2 m/s, from 150°
Visibility:6.21 statute miles
(CLR) Clear
No significant weather changes expected within 2 hours.
EGLL 171950Z AUTO 15004KT 070V230 9999 NCD 12/08 Q1017 NOSIG
VFR 19:20:00 17-10-17
Automated station, no observer
Altimeter:30.03 hg
Temp:12.0°c 54°f
Dew point:8.0°c 46°f
Wind:2 knots, 2.3 mph, 1 m/s,
Variable direction
Visibility:6.21 statute miles
(CLR) Clear
No significant weather changes expected within 2 hours.
EGLL 171920Z AUTO VRB02KT 9999 NCD 12/08 Q1017 NOSIG
VFR 18:50:00 17-10-17
Automated station, no observer
Altimeter:30.03 hg
Temp:12.0°c 54°f
Dew point:8.0°c 46°f
Wind:1 knots, 1.2 mph, 1 m/s,
Variable direction
Visibility:6.21 statute miles
(CLR) Clear
No significant weather changes expected within 2 hours.
EGLL 171850Z AUTO VRB01KT 9999 NCD 12/08 Q1017 NOSIG
TAF
TAF EGLL 171700Z 1718/1824 25010KT 9999 SCT030 BECMG 1718/1721 06005KT PROB40 TEMPO 1718/1804 8000 -RA BECMG 1804/1807 7000 -RA BKN012 TEMPO 1806/1818 3000 RADZ BR BKN007 PROB30 TEMPO 1808/1816 BKN004 TEMPO 1818/1821 9999 NSW SCT012 BECMG 1821/1824 BKN006 PROB40 TEMPO 1822/1824 2500 BR BKN003
Forecast at EGLL
TEMPO 18:00 17-10-17 to 04:00 18-10-17
40% -RA
Visibility:4.97 statute miles
18:00 17-10-17 to 00:00 19-10-17
Wind:10 Knots from 250°
Visibility:6.21 statute miles
3000SCT Scattered
BECMG 18:00 17-10-17 to 04:00 18-10-17
Wind:5 Knots from 60°
Visibility:6.21 statute miles
3000SCT Scattered
BECMG 04:00 18-10-17 to 21:00 18-10-17
-RA
Wind:5 Knots from 60°
Visibility:4.35 statute miles
1200BKN Broken
TEMPO 06:00 18-10-17 to 18:00 18-10-17
RA DZ BR
Visibility:1.86 statute miles
700BKN Broken
TEMPO 08:00 18-10-17 to 16:00 18-10-17
30%
400BKN Broken
TEMPO 18:00 18-10-17 to 21:00 18-10-17
NSW
Visibility:6.21 statute miles
1200SCT Scattered
BECMG 21:00 18-10-17 to 00:00 19-10-17
-RA
Wind:5 Knots from 60°
Visibility:4.35 statute miles
600BKN Broken
TEMPO 22:00 18-10-17 to 00:00 19-10-17
40% BR
Visibility:1.55 statute miles
300BKN Broken